Terminal Aerodrome Forecast
Issued by NWS Denver/Boulder, CO

Home | Current Version | Previous Version | Text Only | Print | Product List | Glossary On
Versions: 1 2 3 4 5 6 7 8 9 10 11 12 13 14 15 16 17 18 19 20 21 22 23 24 25 26 27 28 29 30 31 32 33 34 35 36 37 38 39 40 41 42 43 44
000
FTUS45 KBOU 182337 CCA
TAFDEN
TAF COR
KDEN 182337Z 1900/2006 18006KT P6SM FEW080 BKN140
     FM190015 22013KT P6SM FEW080 BKN140
     FM190500 20010KT P6SM FEW080 SCT140
     FM191500 26006KT P6SM FEW140 SCT220
     FM192000 21008KT P6SM FEW080 SCT140
     FM192300 29012KT P6SM VCTS SCT080CB BKN140
     FM200200 24012KT P6SM SCT140 BKN220=

USA.gov is the U.S. government's official web portal to all federal, state and local government web resources and services.